Time;durP1;ratioP1;P1;durP2;ratioP2;P2;SDS_P1;SDS_P2;PMS_P1;PMS_P2;Temp;Humidity;BMP_temperature;BMP_pressure;BME280_temperature;BME280_humidity;BME280_pressure;Samples;Min_cycle;Max_cycle;Signal;HPM_P1;HPM_P2
2022/04/20 00:01:06;;;;;;;;;;;;;;;;;;5054946;28;19913;-69
2022/04/20 00:03:32;;;;;;;;;;;;;;;;;;5053245;28;20280;-69
2022/04/20 00:05:58;;;;;;;;;;;;;;;;;;5053531;28;19996;-69
2022/04/20 00:08:24;;;;;;;;;;;;;;;;;;5054395;28;20323;-69
2022/04/20 00:10:50;;;;;;;;;;;;;;;;;;5054932;28;19908;-69
2022/04/20 00:13:16;;;;;;;;;;;;;;;;;;5054718;28;20266;-68
2022/04/20 00:15:42;;;;;;;;;;;;;;;;;;5054616;28;19909;-69
2022/04/20 00:18:08;;;;;;;;;;;;;;;;;;5054286;28;19968;-69
2022/04/20 00:20:34;;;;;;;;;;;;;;;;;;5053243;28;19915;-69
2022/04/20 00:23:00;;;;;;;;;;;;;;;;;;5054061;28;19911;-69
2022/04/20 00:25:26;;;;;;;;;;;;;;;;;;5054409;28;20385;-69
2022/04/20 00:27:52;;;;;;;;;;;;;;;;;;5053907;28;19908;-69
2022/04/20 00:30:18;;;;;;;;;;;;;;;;;;5053925;28;20319;-69
2022/04/20 00:32:44;;;;;;;;;;;;;;;;;;5054480;28;19909;-69
2022/04/20 00:35:13;;;;;;;;;;;;;;;;;;5054278;28;19970;-69
2022/04/20 00:37:39;;;;;;;;;;;;;;;;;;5053910;28;19913;-69
2022/04/20 00:40:05;;;;;;;;;;;;;;;;;;5054165;28;19981;-69
2022/04/20 00:42:31;;;;;;;;;;;;;;;;;;5054123;28;19909;-69
2022/04/20 00:44:57;;;;;;;;;;;;;;;;;;5053799;28;19909;-69
2022/04/20 00:47:23;;;;;;;;;;;;;;;;;;5054069;28;20203;-69
2022/04/20 00:49:49;;;;;;;;;;;;;;;;;;5054101;28;19909;-69
2022/04/20 00:52:15;;;;;;;;;;;;;;;;;;5053674;28;19908;-69
2022/04/20 00:54:41;;;;;;;;;;;;;;;;;;5054134;28;19912;-69
2022/04/20 00:57:07;;;;;;;;;;;;;;;;;;5053989;28;19971;-69
2022/04/20 00:59:33;;;;;;;;;;;;;;;;;;5053459;28;19921;-69
2022/04/20 01:01:58;;;;;;;;;;;;;;;;;;5053955;28;20332;-69
2022/04/20 01:04:24;;;;;;;;;;;;;;;;;;5053993;28;19916;-69
2022/04/20 01:06:50;;;;;;;;;;;;;;;;;;5054308;28;20420;-69
2022/04/20 01:09:16;;;;;;;;;;;;;;;;;;5054321;28;19919;-69
2022/04/20 01:11:42;;;;;;;;;;;;;;;;;;5053355;28;20323;-69
2022/04/20 01:14:08;;;;;;;;;;;;;;;;;;5053758;28;19909;-69
2022/04/20 01:16:34;;;;;;;;;;;;;;;;;;5053656;28;19909;-69
2022/04/20 01:19:01;;;;;;;;;;;;;;;;;;5053036;28;19921;-69
2022/04/20 01:21:27;;;;;;;;;;;;;;;;;;5053874;28;19908;-69
2022/04/20 01:23:53;;;;;;;;;;;;;;;;;;5052349;28;20285;-69
2022/04/20 01:26:19;;;;;;;;;;;;;;;;;;5053211;28;19909;-69
2022/04/20 01:28:44;;;;;;;;;;;;;;;;;;5052227;28;19967;-69
2022/04/20 01:31:11;;;;;;;;;;;;;;;;;;5053749;28;20434;-69
2022/04/20 01:33:37;;;;;;;;;;;;;;;;;;5053209;28;20327;-69
2022/04/20 01:36:03;;;;;;;;;;;;;;;;;;5053531;28;19916;-69
2022/04/20 01:38:29;;;;;;;;;;;;;;;;;;5053697;28;20012;-69
2022/04/20 01:40:55;;;;;;;;;;;;;;;;;;5056534;28;19944;-69
2022/04/20 01:43:21;;;;;;;;;;;;;;;;;;5057409;28;19967;-69
2022/04/20 01:45:47;;;;;;;;;;;;;;;;;;5057754;28;19954;-69
2022/04/20 01:48:13;;;;;;;;;;;;;;;;;;5057014;28;19913;-69
2022/04/20 01:51:46;;;;;;;;;;;;;;;;;;5057402;28;19909;-69
2022/04/20 01:53:25;;;;;;;;;;;;;;;;;;5057107;28;19909;-69
2022/04/20 01:55:51;;;;;;;;;;;;;;;;;;5056876;28;19962;-69
2022/04/20 01:58:17;;;;;;;;;;;;;;;;;;5057418;28;19965;-69
2022/04/20 02:00:43;;;;;;;;;;;;;;;;;;5056733;28;19991;-69
2022/04/20 02:03:09;;;;;;;;;;;;;;;;;;5057077;28;19915;-70
2022/04/20 02:05:35;;;;;;;;;;;;;;;;;;5057351;28;19908;-70
2022/04/20 02:08:01;;;;;;;;;;;;;;;;;;5056651;28;19916;-69
2022/04/20 02:10:27;;;;;;;;;;;;;;;;;;5057086;28;19912;-69
2022/04/20 02:12:53;;;;;;;;;;;;;;;;;;5057225;28;19909;-69
2022/04/20 02:15:19;;;;;;;;;;;;;;;;;;5056450;28;19909;-69
2022/04/20 02:17:45;;;;;;;;;;;;;;;;;;5057076;28;20445;-69
2022/04/20 02:20:11;;;;;;;;;;;;;;;;;;5056785;28;19909;-69
2022/04/20 02:22:37;;;;;;;;;;;;;;;;;;5056500;28;19919;-69
2022/04/20 02:25:03;;;;;;;;;;;;;;;;;;5056650;28;20423;-69
2022/04/20 02:27:29;;;;;;;;;;;;;;;;;;5057122;28;19916;-69
2022/04/20 02:29:55;;;;;;;;;;;;;;;;;;5056374;28;20349;-70
2022/04/20 02:32:24;;;;;;;;;;;;;;;;;;5056461;28;19909;-68
2022/04/20 02:34:50;;;;;;;;;;;;;;;;;;5056367;28;19909;-68
2022/04/20 02:37:16;;;;;;;;;;;;;;;;;;5055989;28;20334;-69
2022/04/20 02:39:42;;;;;;;;;;;;;;;;;;5056470;28;20366;-68
2022/04/20 02:42:08;;;;;;;;;;;;;;;;;;5056421;28;19909;-68
2022/04/20 02:44:34;;;;;;;;;;;;;;;;;;5055954;28;20270;-67
2022/04/20 02:47:00;;;;;;;;;;;;;;;;;;5056306;28;19909;-67
2022/04/20 02:49:26;;;;;;;;;;;;;;;;;;5056345;28;19959;-67
2022/04/20 02:51:52;;;;;;;;;;;;;;;;;;5055639;28;19909;-67
2022/04/20 02:54:18;;;;;;;;;;;;;;;;;;5054905;28;19909;-67
2022/04/20 02:56:44;;;;;;;;;;;;;;;;;;5056351;28;19909;-67
2022/04/20 02:59:10;;;;;;;;;;;;;;;;;;5055671;28;19966;-67
2022/04/20 03:01:36;;;;;;;;;;;;;;;;;;5056065;28;19913;-68
2022/04/20 03:04:02;;;;;;;;;;;;;;;;;;5055966;28;20415;-68
2022/04/20 03:06:28;;;;;;;;;;;;;;;;;;5056238;28;20392;-68
2022/04/20 03:08:54;;;;;;;;;;;;;;;;;;5056383;28;19909;-67
2022/04/20 03:11:20;;;;;;;;;;;;;;;;;;5055437;28;19913;-68
2022/04/20 03:13:46;;;;;;;;;;;;;;;;;;5055812;28;20354;-68
2022/04/20 03:16:12;;;;;;;;;;;;;;;;;;5054444;28;19913;-68
2022/04/20 03:18:38;;;;;;;;;;;;;;;;;;5055222;28;19921;-67
2022/04/20 03:21:04;;;;;;;;;;;;;;;;;;5055732;28;19909;-67
2022/04/20 03:23:30;;;;;;;;;;;;;;;;;;5055603;28;20007;-67
2022/04/20 03:25:56;;;;;;;;;;;;;;;;;;5055432;28;19940;-67
2022/04/20 03:28:23;;;;;;;;;;;;;;;;;;5055599;28;19909;-67
2022/04/20 03:30:49;;;;;;;;;;;;;;;;;;5055963;28;19908;-68
2022/04/20 03:33:15;;;;;;;;;;;;;;;;;;5055335;28;19916;-68
2022/04/20 03:35:41;;;;;;;;;;;;;;;;;;5055316;28;20281;-68
2022/04/20 03:38:07;;;;;;;;;;;;;;;;;;5053947;28;19949;-68
2022/04/20 03:40:33;;;;;;;;;;;;;;;;;;5054911;28;19963;-68
2022/04/20 03:42:59;;;;;;;;;;;;;;;;;;5055244;28;20357;-67
2022/04/20 03:45:25;;;;;;;;;;;;;;;;;;5055246;28;19909;-68
2022/04/20 03:47:51;;;;;;;;;;;;;;;;;;5054743;28;19908;-68
2022/04/20 03:50:17;;;;;;;;;;;;;;;;;;5055118;28;19909;-67
2022/04/20 03:52:43;;;;;;;;;;;;;;;;;;5055103;28;19955;-67
2022/04/20 03:55:09;;;;;;;;;;;;;;;;;;5054567;28;19913;-68
2022/04/20 03:57:35;;;;;;;;;;;;;;;;;;5054918;28;20345;-67
2022/04/20 04:00:01;;;;;;;;;;;;;;;;;;5055512;28;19952;-67
2022/04/20 04:02:27;;;;;;;;;;;;;;;;;;5053643;28;19909;-67
2022/04/20 04:04:53;;;;;;;;;;;;;;;;;;5054760;28;20011;-66
2022/04/20 04:07:19;;;;;;;;;;;;;;;;;;5054354;28;20361;-66
2022/04/20 04:09:45;;;;;;;;;;;;;;;;;;5054949;28;19947;-66
2022/04/20 04:12:11;;;;;;;;;;;;;;;;;;5054657;28;19962;-66
2022/04/20 04:14:37;;;;;;;;;;;;;;;;;;5054214;28;19913;-66
2022/04/20 04:17:03;;;;;;;;;;;;;;;;;;5053167;28;19937;-66
2022/04/20 04:19:30;;;;;;;;;;;;;;;;;;5054806;28;19963;-66
2022/04/20 04:21:56;;;;;;;;;;;;;;;;;;5054102;28;19917;-66
2022/04/20 04:24:34;;;;;;;;;;;;;;;;;;5054585;28;20353;-66
2022/04/20 04:27:00;;;;;;;;;;;;;;;;;;5054989;28;19920;-66
2022/04/20 04:29:26;;;;;;;;;;;;;;;;;;5053826;28;19913;-66
2022/04/20 04:31:52;;;;;;;;;;;;;;;;;;5054331;28;20365;-66
2022/04/20 04:34:18;;;;;;;;;;;;;;;;;;5054270;28;19916;-66
2022/04/20 04:36:44;;;;;;;;;;;;;;;;;;5053779;28;19909;-66
2022/04/20 04:39:10;;;;;;;;;;;;;;;;;;5054178;28;19923;-66
2022/04/20 04:41:36;;;;;;;;;;;;;;;;;;5054176;28;20277;-66
2022/04/20 04:44:02;;;;;;;;;;;;;;;;;;5053780;28;19916;-66
2022/04/20 04:49:13;;;;;;;;;;;;;;;;;;5054029;28;20308;-66
2022/04/20 04:51:39;;;;;;;;;;;;;;;;;;5052340;28;19909;-66
2022/04/20 04:54:05;;;;;;;;;;;;;;;;;;5054000;28;19916;-67
2022/04/20 04:56:31;;;;;;;;;;;;;;;;;;5053496;28;19915;-67
2022/04/20 04:58:57;;;;;;;;;;;;;;;;;;5053850;28;19917;-66
2022/04/20 05:01:24;;;;;;;;;;;;;;;;;;5053816;28;20372;-66
2022/04/20 05:03:50;;;;;;;;;;;;;;;;;;5053460;28;20000;-66
2022/04/20 05:06:15;;;;;;;;;;;;;;;;;;5053833;28;19940;-66
2022/04/20 05:08:41;;;;;;;;;;;;;;;;;;5053572;28;19944;-69
2022/04/20 05:11:10;;;;;;;;;;;;;;;;;;5051630;28;19909;-65
2022/04/20 05:13:36;;;;;;;;;;;;;;;;;;5047955;28;19958;-66
2022/04/20 05:16:02;;;;;;;;;;;;;;;;;;5054504;28;19925;-65
2022/04/20 05:18:28;;;;;;;;;;;;;;;;;;5055778;28;19974;-65
2022/04/20 05:20:54;;;;;;;;;;;;;;;;;;5050777;28;19909;-65
2022/04/20 05:23:20;;;;;;;;;;;;;;;;;;5047551;28;19913;-66
2022/04/20 05:25:46;;;;;;;;;;;;;;;;;;5053642;28;19924;-66
2022/04/20 05:28:12;;;;;;;;;;;;;;;;;;5049083;28;19924;-66
2022/04/20 05:30:38;;;;;;;;;;;;;;;;;;5050987;28;20002;-65
2022/04/20 05:33:04;;;;;;;;;;;;;;;;;;5052953;28;19990;-65
2022/04/20 05:35:30;;;;;;;;;;;;;;;;;;5071459;28;20454;-66
2022/04/20 05:43:26;;;;;;;;;;;;;;;;;;5070104;28;19943;-66
2022/04/20 05:45:52;;;;;;;;;;;;;;;;;;5072543;28;20357;-65
2022/04/20 05:48:18;;;;;;;;;;;;;;;;;;5072968;28;19908;-64
2022/04/20 05:50:44;;;;;;;;;;;;;;;;;;5072892;28;19908;-65
2022/04/20 05:53:12;;;;;;;;;;;;;;;;;;5070726;28;19913;-66
2022/04/20 05:55:38;;;;;;;;;;;;;;;;;;5072839;28;19908;-65
2022/04/20 05:58:04;;;;;;;;;;;;;;;;;;5071218;28;20308;-66
2022/04/20 06:00:31;;;;;;;;;;;;;;;;;;5071319;28;19919;-67
2022/04/20 06:02:57;;;;;;;;;;;;;;;;;;5072744;28;20011;-66
2022/04/20 06:05:23;;;;;;;;;;;;;;;;;;5072717;28;19960;-66
2022/04/20 06:07:49;;;;;;;;;;;;;;;;;;5062911;28;19908;-66
2022/04/20 06:10:15;;;;;;;;;;;;;;;;;;5049963;28;19951;-66
2022/04/20 06:12:41;;;;;;;;;;;;;;;;;;5046845;28;19955;-66
2022/04/20 06:15:07;;;;;;;;;;;;;;;;;;5052980;28;19913;-67
2022/04/20 06:17:33;;;;;;;;;;;;;;;;;;5052164;28;20339;-65
2022/04/20 06:20:00;;;;;;;;;;;;;;;;;;5052423;28;19909;-65
2022/04/20 06:22:26;;;;;;;;;;;;;;;;;;5049845;28;19980;-66
2022/04/20 06:24:52;;;;;;;;;;;;;;;;;;5051795;28;20004;-66
2022/04/20 06:27:19;;;;;;;;;;;;;;;;;;5055902;28;20357;-65
2022/04/20 06:29:46;;;;;;;;;;;;;;;;;;5057071;28;19996;-67
2022/04/20 06:32:13;;;;;;;;;;;;;;;;;;5065328;28;19908;-66
2022/04/20 06:34:39;;;;;;;;;;;;;;;;;;5054600;28;20029;-65
2022/04/20 06:37:05;;;;;;;;;;;;;;;;;;5054108;28;20003;-65
2022/04/20 06:39:31;;;;;;;;;;;;;;;;;;5058690;28;19978;-65
2022/04/20 06:41:57;;;;;;;;;;;;;;;;;;5055079;28;19909;-65
2022/04/20 06:44:23;;;;;;;;;;;;;;;;;;5054491;28;20285;-65
2022/04/20 06:46:49;;;;;;;;;;;;;;;;;;5060417;28;19912;-65
2022/04/20 06:49:16;;;;;;;;;;;;;;;;;;5054161;28;19928;-67
2022/04/20 06:59:56;;;;;;;;;;;;;;;;;;5054860;28;19928;-66
2022/04/20 07:02:22;;;;;;;;;;;;;;;;;;5053425;28;20487;-65
2022/04/20 07:04:48;;;;;;;;;;;;;;;;;;5052555;28;20327;-66
2022/04/20 07:07:14;;;;;;;;;;;;;;;;;;5053260;28;19913;-66
2022/04/20 07:09:40;;;;;;;;;;;;;;;;;;5053261;28;19909;-67
2022/04/20 07:12:06;;;;;;;;;;;;;;;;;;5052814;28;19917;-67
2022/04/20 07:14:32;;;;;;;;;;;;;;;;;;5053646;28;19909;-66
2022/04/20 07:16:58;;;;;;;;;;;;;;;;;;5054888;28;19931;-66
2022/04/20 07:19:24;;;;;;;;;;;;;;;;;;5054752;28;19966;-66
2022/04/20 07:21:50;;;;;;;;;;;;;;;;;;5053910;28;20391;-66
2022/04/20 07:24:16;;;;;;;;;;;;;;;;;;5053823;28;19913;-66
2022/04/20 07:26:42;;;;;;;;;;;;;;;;;;5054707;28;19916;-66
2022/04/20 07:29:08;;;;;;;;;;;;;;;;;;5054070;28;20266;-66
2022/04/20 07:31:34;;;;;;;;;;;;;;;;;;5053663;28;19919;-65
2022/04/20 07:34:00;;;;;;;;;;;;;;;;;;5055062;28;19909;-65
2022/04/20 07:36:27;;;;;;;;;;;;;;;;;;5051415;28;19908;-66
2022/04/20 07:38:53;;;;;;;;;;;;;;;;;;5054431;28;20281;-65
2022/04/20 07:41:20;;;;;;;;;;;;;;;;;;5053676;28;20027;-65
2022/04/20 07:43:52;;;;;;;;;;;;;;;;;;5052993;28;20353;-65
2022/04/20 07:46:20;;;;;;;;;;;;;;;;;;5054096;28;19909;-65
2022/04/20 07:48:46;;;;;;;;;;;;;;;;;;5054445;28;19947;-65
2022/04/20 07:51:13;;;;;;;;;;;;;;;;;;5051679;28;19996;-66
2022/04/20 07:53:42;;;;;;;;;;;;;;;;;;5055170;28;20277;-65
2022/04/20 07:56:53;;;;;;;;;;;;;;;;;;5163632;27;20419;-64
2022/04/20 07:59:22;;;;;;;;;;;;;;;;;;5138731;27;20702;-64
2022/04/20 08:01:50;;;;;;;;;;;;;;;;;;5152164;27;20002;-65
2022/04/20 08:04:17;;;;;;;;;;;;;;;;;;5151986;27;19950;-65
2022/04/20 08:07:04;;;;;;;;;;;;;;;;;;5150817;27;19911;-64
2022/04/20 08:09:30;;;;;;;;;;;;;;;;;;5140715;27;19919;-66
2022/04/20 08:11:56;;;;;;;;;;;;;;;;;;5132612;27;19922;-65
2022/04/20 08:14:23;;;;;;;;;;;;;;;;;;5150688;27;19911;-66
2022/04/20 08:16:50;;;;;;;;;;;;;;;;;;5148983;27;19919;-66
2022/04/20 08:20:42;;;;;;;;;;;;;;;;;;5133907;27;1033806;-65
2022/04/20 08:23:08;;;;;;;;;;;;;;;;;;5188167;27;19963;-66
2022/04/20 08:26:00;;;;;;;;;;;;;;;;;;5102475;27;20296;-65
2022/04/20 08:29:12;;;;;;;;;;;;;;;;;;5143489;27;19989;-66
2022/04/20 08:35:13;;;;;;;;;;;;;;;;;;5100076;27;20034;-66
2022/04/20 08:37:39;;;;;;;;;;;;;;;;;;5069532;28;19948;-67
2022/04/20 08:40:05;;;;;;;;;;;;;;;;;;5069165;28;19919;-66
2022/04/20 08:42:41;;;;;;;;;;;;;;;;;;5069730;28;19913;-67
2022/04/20 08:45:10;;;;;;;;;;;;;;;;;;5068883;28;19912;-66
2022/04/20 08:47:36;;;;;;;;;;;;;;;;;;5069827;28;19913;-66
2022/04/20 08:50:04;;;;;;;;;;;;;;;;;;5068141;28;19923;-66
2022/04/20 08:57:33;;;;;;;;;;;;;;;;;;5168833;27;19926;-65
2022/04/20 08:59:59;;;;;;;;;;;;;;;;;;5163052;27;20260;-66
2022/04/20 09:02:25;;;;;;;;;;;;;;;;;;5172427;27;19922;-66
2022/04/20 09:04:51;;;;;;;;;;;;;;;;;;5171655;27;20339;-66
2022/04/20 09:07:18;;;;;;;;;;;;;;;;;;5172596;27;19907;-65
2022/04/20 09:09:44;;;;;;;;;;;;;;;;;;5172839;27;19998;-66
2022/04/20 09:12:14;;;;;;;;;;;;;;;;;;5160469;27;20007;-66
2022/04/20 09:19:15;;;;;;;;;;;;;;;;;;5092829;27;19924;-69
2022/04/20 09:21:42;;;;;;;;;;;;;;;;;;5069486;28;20272;-68
2022/04/20 09:26:36;;;;;;;;;;;;;;;;;;5101752;27;19917;-65
2022/04/20 09:29:02;;;;;;;;;;;;;;;;;;5068802;28;20436;-68
2022/04/20 09:31:28;;;;;;;;;;;;;;;;;;5069420;28;19909;-68
2022/04/20 09:33:55;;;;;;;;;;;;;;;;;;5070209;28;19909;-65
2022/04/20 09:36:54;;;;;;;;;;;;;;;;;;5138157;27;939651;-67
2022/04/20 09:39:20;;;;;;;;;;;;;;;;;;5182231;27;19911;-65
2022/04/20 09:41:46;;;;;;;;;;;;;;;;;;5173220;27;19994;-68
2022/04/20 09:44:32;;;;;;;;;;;;;;;;;;5102963;27;20346;-66
2022/04/20 09:49:42;;;;;;;;;;;;;;;;;;5070469;28;19916;-66
2022/04/20 09:52:10;;;;;;;;;;;;;;;;;;5070046;28;19924;-65
2022/04/20 09:54:37;;;;;;;;;;;;;;;;;;5070455;28;19913;-66
2022/04/20 09:57:02;;;;;;;;;;;;;;;;;;5067889;28;19923;-66
2022/04/20 10:02:36;;;;;;;;;;;;;;;;;;5088481;27;19955;-65
2022/04/20 10:05:02;;;;;;;;;;;;;;;;;;5063579;28;19917;-64
2022/04/20 10:07:28;;;;;;;;;;;;;;;;;;5045873;28;20430;-67
2022/04/20 10:09:54;;;;;;;;;;;;;;;;;;5048872;28;19948;-65
2022/04/20 10:12:25;;;;;;;;;;;;;;;;;;5050037;28;19967;-65
2022/04/20 10:19:18;;;;;;;;;;;;;;;;;;5171274;27;20406;-66
2022/04/20 10:23:45;;;;;;;;;;;;;;;;;;5102557;27;19917;-65
2022/04/20 10:26:12;;;;;;;;;;;;;;;;;;5070677;28;20261;-67
2022/04/20 10:30:42;;;;;;;;;;;;;;;;;;5103105;27;20403;-64
2022/04/20 10:37:47;;;;;;;;;;;;;;;;;;5103124;27;19960;-67
2022/04/20 10:40:14;;;;;;;;;;;;;;;;;;5070577;28;19913;-67
2022/04/20 10:43:12;;;;;;;;;;;;;;;;;;5129591;27;20007;-66
2022/04/20 10:45:38;;;;;;;;;;;;;;;;;;5131708;28;19916;-67
2022/04/20 10:48:04;;;;;;;;;;;;;;;;;;5130776;28;20256;-65
2022/04/20 10:50:30;;;;;;;;;;;;;;;;;;5129654;28;19967;-66
2022/04/20 10:55:09;;;;;;;;;;;;;;;;;;5104740;27;19963;-67
2022/04/20 10:57:35;;;;;;;;;;;;;;;;;;5070327;28;20250;-63
2022/04/20 11:00:01;;;;;;;;;;;;;;;;;;5070394;28;19913;-66
2022/04/20 11:02:27;;;;;;;;;;;;;;;;;;5068139;28;19920;-67
2022/04/20 11:05:17;;;;;;;;;;;;;;;;;;5131417;27;19915;-67
2022/04/20 11:07:43;;;;;;;;;;;;;;;;;;5150316;27;20272;-67
2022/04/20 11:10:09;;;;;;;;;;;;;;;;;;5124113;27;19927;-65
2022/04/20 11:19:02;;;;;;;;;;;;;;;;;;5049825;28;19920;-66
2022/04/20 11:21:28;;;;;;;;;;;;;;;;;;5046330;28;19912;-66
2022/04/20 11:23:57;;;;;;;;;;;;;;;;;;5047080;28;19932;-66
2022/04/20 11:26:27;;;;;;;;;;;;;;;;;;5045279;28;19920;-66
2022/04/20 11:28:54;;;;;;;;;;;;;;;;;;5047085;28;19909;-67
2022/04/20 11:31:20;;;;;;;;;;;;;;;;;;5046450;28;19910;-66
2022/04/20 11:34:53;;;;;;;;;;;;;;;;;;5100588;27;20345;-67
2022/04/20 11:37:19;;;;;;;;;;;;;;;;;;5070757;28;20381;-67
2022/04/20 11:43:16;;;;;;;;;;;;;;;;;;5104394;27;19998;-67
2022/04/20 11:50:11;;;;;;;;;;;;;;;;;;5107389;27;19912;-66
2022/04/20 11:52:37;;;;;;;;;;;;;;;;;;5090687;28;19918;-66
2022/04/20 11:55:03;;;;;;;;;;;;;;;;;;5091042;28;19954;-65
2022/04/20 11:57:29;;;;;;;;;;;;;;;;;;5089767;28;19991;-66
2022/04/20 11:59:55;;;;;;;;;;;;;;;;;;5090861;28;20004;-67
2022/04/20 12:02:21;;;;;;;;;;;;;;;;;;5089439;28;19908;-66
2022/04/20 12:04:48;;;;;;;;;;;;;;;;;;5090848;28;19909;-68
2022/04/20 12:07:15;;;;;;;;;;;;;;;;;;5089271;28;19909;-67
2022/04/20 12:09:43;;;;;;;;;;;;;;;;;;5090867;28;19920;-67
2022/04/20 12:12:09;;;;;;;;;;;;;;;;;;5089557;28;19916;-68
2022/04/20 12:14:35;;;;;;;;;;;;;;;;;;5090260;28;19908;-68
2022/04/20 12:17:01;;;;;;;;;;;;;;;;;;5090659;28;19943;-67
2022/04/20 12:19:27;;;;;;;;;;;;;;;;;;5089268;28;19957;-67
2022/04/20 12:21:53;;;;;;;;;;;;;;;;;;5090288;28;20345;-67
2022/04/20 12:24:20;;;;;;;;;;;;;;;;;;5090415;28;19908;-67
2022/04/20 12:26:46;;;;;;;;;;;;;;;;;;5090173;28;19909;-70
2022/04/20 12:29:13;;;;;;;;;;;;;;;;;;5090404;28;19968;-71
2022/04/20 12:31:41;;;;;;;;;;;;;;;;;;5090596;28;19943;-70
2022/04/20 12:34:08;;;;;;;;;;;;;;;;;;5089975;28;19908;-71
2022/04/20 12:36:34;;;;;;;;;;;;;;;;;;5090488;28;20007;-71
2022/04/20 12:39:00;;;;;;;;;;;;;;;;;;5090452;28;19989;-67
2022/04/20 12:41:26;;;;;;;;;;;;;;;;;;5089997;28;20003;-68
2022/04/20 12:43:52;;;;;;;;;;;;;;;;;;5090358;28;20008;-68
2022/04/20 12:46:18;;;;;;;;;;;;;;;;;;5090382;28;19908;-68
2022/04/20 12:48:44;;;;;;;;;;;;;;;;;;5089813;28;19927;-68
2022/04/20 12:51:10;;;;;;;;;;;;;;;;;;5090414;28;20003;-68
2022/04/20 12:53:38;;;;;;;;;;;;;;;;;;5090741;28;19908;-68
2022/04/20 13:04:19;;;;;;;;;;;;;;;;;;5076615;28;19932;-68
2022/04/20 13:06:45;;;;;;;;;;;;;;;;;;5076655;28;19909;-68
2022/04/20 13:09:11;;;;;;;;;;;;;;;;;;5074776;28;19916;-68
2022/04/20 13:11:37;;;;;;;;;;;;;;;;;;5076434;28;19908;-68
2022/04/20 13:14:03;;;;;;;;;;;;;;;;;;5076657;28;19916;-68
2022/04/20 13:16:30;;;;;;;;;;;;;;;;;;5075894;28;19939;-68
2022/04/20 13:18:56;;;;;;;;;;;;;;;;;;5076226;28;19955;-68
2022/04/20 13:21:23;;;;;;;;;;;;;;;;;;5076208;28;20368;-68
2022/04/20 13:23:50;;;;;;;;;;;;;;;;;;5076142;28;20315;-67
2022/04/20 13:29:01;;;;;;;;;;;;;;;;;;5075963;28;19923;-68
2022/04/20 13:31:27;;;;;;;;;;;;;;;;;;5075752;28;19909;-68
2022/04/20 13:33:53;;;;;;;;;;;;;;;;;;5075933;28;20360;-68
2022/04/20 13:36:19;;;;;;;;;;;;;;;;;;5075901;28;19954;-68
2022/04/20 13:38:45;;;;;;;;;;;;;;;;;;5075692;28;20398;-67
2022/04/20 13:41:11;;;;;;;;;;;;;;;;;;5076364;28;19912;-68
2022/04/20 13:43:37;;;;;;;;;;;;;;;;;;5075847;28;19930;-68
2022/04/20 13:46:03;;;;;;;;;;;;;;;;;;5075431;28;20373;-68
2022/04/20 13:48:29;;;;;;;;;;;;;;;;;;5074145;28;19964;-67
2022/04/20 13:50:55;;;;;;;;;;;;;;;;;;5075530;28;20284;-68
2022/04/20 13:53:21;;;;;;;;;;;;;;;;;;5075538;28;19909;-67
2022/04/20 13:55:47;;;;;;;;;;;;;;;;;;5075542;28;20017;-68
2022/04/20 13:58:13;;;;;;;;;;;;;;;;;;5075124;28;19962;-68
2022/04/20 14:00:40;;;;;;;;;;;;;;;;;;5074971;28;19909;-67
2022/04/20 14:03:08;;;;;;;;;;;;;;;;;;5075476;28;20361;-67
2022/04/20 14:05:34;;;;;;;;;;;;;;;;;;5074954;28;19912;-67
2022/04/20 14:08:00;;;;;;;;;;;;;;;;;;5075165;28;19916;-67
2022/04/20 14:10:26;;;;;;;;;;;;;;;;;;5075213;28;19920;-66
2022/04/20 14:12:52;;;;;;;;;;;;;;;;;;5073755;28;19916;-66
2022/04/20 14:15:18;;;;;;;;;;;;;;;;;;5075155;28;19908;-66
2022/04/20 14:17:45;;;;;;;;;;;;;;;;;;5075039;28;19974;-66
2022/04/20 14:20:11;;;;;;;;;;;;;;;;;;5074647;28;19912;-66
2022/04/20 14:22:37;;;;;;;;;;;;;;;;;;5075062;28;19909;-67
2022/04/20 14:33:17;;;;;;;;;;;;;;;;;;5074449;28;19917;-67
2022/04/20 14:35:43;;;;;;;;;;;;;;;;;;5074630;28;19915;-68
2022/04/20 14:38:09;;;;;;;;;;;;;;;;;;5074621;28;19930;-68
2022/04/20 14:40:35;;;;;;;;;;;;;;;;;;5074225;28;19908;-68
2022/04/20 14:43:01;;;;;;;;;;;;;;;;;;5074546;28;19917;-67
2022/04/20 14:45:27;;;;;;;;;;;;;;;;;;5074555;28;19908;-68
2022/04/20 14:47:58;;;;;;;;;;;;;;;;;;5072668;28;19931;-68
2022/04/20 14:50:24;;;;;;;;;;;;;;;;;;5074531;28;19915;-67
2022/04/20 14:52:50;;;;;;;;;;;;;;;;;;5073162;28;20342;-67
2022/04/20 14:55:16;;;;;;;;;;;;;;;;;;5074147;28;19944;-68
2022/04/20 14:57:43;;;;;;;;;;;;;;;;;;5074598;28;19912;-68
2022/04/20 15:00:11;;;;;;;;;;;;;;;;;;5074665;28;19915;-68
2022/04/20 15:02:38;;;;;;;;;;;;;;;;;;5074010;28;20280;-68
2022/04/20 15:05:04;;;;;;;;;;;;;;;;;;5074310;28;19909;-68
2022/04/20 15:07:30;;;;;;;;;;;;;;;;;;5074206;28;19918;-68
2022/04/20 15:09:56;;;;;;;;;;;;;;;;;;5072426;28;19916;-68
2022/04/20 15:12:22;;;;;;;;;;;;;;;;;;5074136;28;19908;-68
2022/04/20 15:14:48;;;;;;;;;;;;;;;;;;5074128;28;20007;-68
2022/04/20 15:17:14;;;;;;;;;;;;;;;;;;5073951;28;20426;-67
2022/04/20 15:19:40;;;;;;;;;;;;;;;;;;5072773;28;19912;-68
2022/04/20 15:22:07;;;;;;;;;;;;;;;;;;5074020;28;20384;-68
2022/04/20 15:24:33;;;;;;;;;;;;;;;;;;5073334;28;20319;-68
2022/04/20 15:26:59;;;;;;;;;;;;;;;;;;5074165;28;19962;-68
2022/04/20 15:29:25;;;;;;;;;;;;;;;;;;5073833;28;19916;-68
2022/04/20 15:31:55;;;;;;;;;;;;;;;;;;5073868;28;19916;-68
2022/04/20 15:34:21;;;;;;;;;;;;;;;;;;5073908;28;19931;-68
2022/04/20 15:36:47;;;;;;;;;;;;;;;;;;5073493;28;19954;-68
2022/04/20 15:39:13;;;;;;;;;;;;;;;;;;5074204;28;19908;-68
2022/04/20 15:41:41;;;;;;;;;;;;;;;;;;5073910;28;20430;-68
2022/04/20 15:44:07;;;;;;;;;;;;;;;;;;5073945;28;19908;-68
2022/04/20 15:46:33;;;;;;;;;;;;;;;;;;5073756;28;20377;-68
2022/04/20 15:48:59;;;;;;;;;;;;;;;;;;5073671;28;19920;-68
2022/04/20 15:51:26;;;;;;;;;;;;;;;;;;5072164;28;19995;-68
2022/04/20 15:53:53;;;;;;;;;;;;;;;;;;5073675;28;20288;-67
2022/04/20 16:01:58;;;;;;;;;;;;;;;;;;5073608;28;20375;-68
2022/04/20 16:04:32;;;;;;;;;;;;;;;;;;5073620;28;19908;-68
2022/04/20 16:06:58;;;;;;;;;;;;;;;;;;5073201;28;19909;-68
2022/04/20 16:09:24;;;;;;;;;;;;;;;;;;5073611;28;19923;-68
2022/04/20 16:11:50;;;;;;;;;;;;;;;;;;5073069;28;19913;-68
2022/04/20 16:14:16;;;;;;;;;;;;;;;;;;5073951;28;20375;-68
2022/04/20 16:16:45;;;;;;;;;;;;;;;;;;5073640;28;19954;-68
2022/04/20 16:19:11;;;;;;;;;;;;;;;;;;5073221;28;19912;-69
2022/04/20 16:21:37;;;;;;;;;;;;;;;;;;5073450;28;20268;-68
2022/04/20 16:24:03;;;;;;;;;;;;;;;;;;5073370;28;19908;-68
2022/04/20 16:26:29;;;;;;;;;;;;;;;;;;5071684;28;19909;-68
2022/04/20 16:28:55;;;;;;;;;;;;;;;;;;5073699;28;20437;-68
2022/04/20 16:31:21;;;;;;;;;;;;;;;;;;5072116;28;19915;-68
2022/04/20 16:33:47;;;;;;;;;;;;;;;;;;5073073;28;19908;-68
2022/04/20 16:36:13;;;;;;;;;;;;;;;;;;5075998;28;19954;-67
2022/04/20 16:38:39;;;;;;;;;;;;;;;;;;5077048;28;19954;-68
2022/04/20 16:41:05;;;;;;;;;;;;;;;;;;5076607;28;19909;-67
2022/04/20 16:43:31;;;;;;;;;;;;;;;;;;5076949;28;19995;-67
2022/04/20 16:45:58;;;;;;;;;;;;;;;;;;5075509;28;20352;-67
2022/04/20 16:48:24;;;;;;;;;;;;;;;;;;5076102;28;20117;-67
2022/04/20 16:50:50;;;;;;;;;;;;;;;;;;5075454;28;19948;-67
2022/04/20 16:53:16;;;;;;;;;;;;;;;;;;5076664;28;19908;-67
2022/04/20 16:55:42;;;;;;;;;;;;;;;;;;5076270;28;19915;-67
2022/04/20 16:58:08;;;;;;;;;;;;;;;;;;5076955;28;20379;-67
2022/04/20 17:00:34;;;;;;;;;;;;;;;;;;5076884;28;20356;-67
2022/04/20 17:03:00;;;;;;;;;;;;;;;;;;5076251;28;19935;-68
2022/04/20 17:05:26;;;;;;;;;;;;;;;;;;5076603;28;19909;-68
2022/04/20 17:07:52;;;;;;;;;;;;;;;;;;5076453;28;19908;-68
2022/04/20 17:10:19;;;;;;;;;;;;;;;;;;5076140;28;19908;-68
2022/04/20 17:12:45;;;;;;;;;;;;;;;;;;5076452;28;19908;-68
2022/04/20 17:15:11;;;;;;;;;;;;;;;;;;5075995;28;20297;-68
2022/04/20 17:17:37;;;;;;;;;;;;;;;;;;5076320;28;20006;-68
2022/04/20 17:28:17;;;;;;;;;;;;;;;;;;5076135;28;19939;-69
2022/04/20 17:30:43;;;;;;;;;;;;;;;;;;5075713;28;19909;-68
2022/04/20 17:33:09;;;;;;;;;;;;;;;;;;5076527;28;19909;-67
2022/04/20 17:38:20;;;;;;;;;;;;;;;;;;5075457;28;19916;-67
2022/04/20 17:40:46;;;;;;;;;;;;;;;;;;5075778;28;19908;-67
2022/04/20 17:43:12;;;;;;;;;;;;;;;;;;5075751;28;20284;-67
2022/04/20 17:45:38;;;;;;;;;;;;;;;;;;5075219;28;19909;-67
2022/04/20 17:48:04;;;;;;;;;;;;;;;;;;5075459;28;19913;-67
2022/04/20 17:50:35;;;;;;;;;;;;;;;;;;5075234;28;20364;-67
2022/04/20 17:53:01;;;;;;;;;;;;;;;;;;5075582;28;19962;-68
2022/04/20 17:55:30;;;;;;;;;;;;;;;;;;5075572;28;20269;-68
2022/04/20 17:57:56;;;;;;;;;;;;;;;;;;5075181;28;19990;-66
2022/04/20 18:00:22;;;;;;;;;;;;;;;;;;5075642;28;19908;-66
2022/04/20 18:02:48;;;;;;;;;;;;;;;;;;5075451;28;19908;-66
2022/04/20 18:05:14;;;;;;;;;;;;;;;;;;5074968;28;19909;-67
2022/04/20 18:07:41;;;;;;;;;;;;;;;;;;5075318;28;19912;-67
2022/04/20 18:10:07;;;;;;;;;;;;;;;;;;5075109;28;19977;-67
2022/04/20 18:12:33;;;;;;;;;;;;;;;;;;5074812;28;19908;-67
2022/04/20 18:14:59;;;;;;;;;;;;;;;;;;5075141;28;19915;-66
2022/04/20 18:17:25;;;;;;;;;;;;;;;;;;5075046;28;19909;-67
2022/04/20 18:19:51;;;;;;;;;;;;;;;;;;5074643;28;19995;-66
2022/04/20 18:22:17;;;;;;;;;;;;;;;;;;5074954;28;19916;-67
2022/04/20 18:24:43;;;;;;;;;;;;;;;;;;5073587;28;19908;-67
2022/04/20 18:27:09;;;;;;;;;;;;;;;;;;5074684;28;19986;-67
2022/04/20 18:29:35;;;;;;;;;;;;;;;;;;5074912;28;19938;-68